createdAt,value
2024-05-09T00:00:53.191Z,8.19
2024-05-09T00:02:34.728Z,8.34
2024-05-09T00:04:16.224Z,8.24
2024-05-09T00:05:57.754Z,8.22
2024-05-09T00:07:39.272Z,8.19
2024-05-09T00:09:20.824Z,8.11
2024-05-09T00:11:02.369Z,7.95
2024-05-09T00:12:43.880Z,7.98
2024-05-09T00:14:25.453Z,8.03
2024-05-09T00:16:06.987Z,8.19
2024-05-09T00:17:48.580Z,7.73
2024-05-09T00:19:30.309Z,7.61
2024-05-09T00:21:11.883Z,7.56
2024-05-09T00:22:53.423Z,7.39
2024-05-09T00:24:35.006Z,7.14
2024-05-09T00:26:16.490Z,7.04
2024-05-09T00:27:57.956Z,6.99
2024-05-09T00:29:39.433Z,6.85
2024-05-09T00:31:20.919Z,6.49
2024-05-09T00:33:02.598Z,6.55
2024-05-09T00:34:44.225Z,6.56
2024-05-09T00:36:25.724Z,6.46
2024-05-09T00:38:07.324Z,6.25
2024-05-09T00:39:48.901Z,6.06
2024-05-09T00:41:30.423Z,5.90
2024-05-09T00:43:12.948Z,6.01
2024-05-09T00:44:55.574Z,6.28
2024-05-09T00:46:37.026Z,6.55
2024-05-09T00:48:20.930Z,6.86
2024-05-09T00:50:04.135Z,6.67
2024-05-09T00:51:45.780Z,6.40
2024-05-09T00:53:27.315Z,6.53
2024-05-09T00:55:08.819Z,6.23
2024-05-09T00:56:50.270Z,6.47
2024-05-09T00:58:31.738Z,6.71
2024-05-09T01:00:22.586Z,6.84
2024-05-09T01:02:12.256Z,6.52
2024-05-09T01:03:54.047Z,6.21
2024-05-09T01:05:35.824Z,5.96
2024-05-09T01:07:17.352Z,5.70
2024-05-09T01:08:58.825Z,5.84
2024-05-09T01:10:43.903Z,6.24
2024-05-09T01:12:26.858Z,6.44
2024-05-09T01:14:08.475Z,6.61
2024-05-09T01:15:50.039Z,6.46
2024-05-09T01:17:31.772Z,6.61
2024-05-09T01:19:13.489Z,7.02
2024-05-09T01:20:55.063Z,7.30
2024-05-09T01:22:36.570Z,7.35
2024-05-09T01:24:18.032Z,7.47
2024-05-09T01:25:59.527Z,7.75
2024-05-09T01:27:41.037Z,7.65
2024-05-09T01:29:22.648Z,7.67
2024-05-09T01:31:04.149Z,7.70
2024-05-09T01:32:45.720Z,7.82
2024-05-09T01:34:27.231Z,7.72
2024-05-09T01:36:08.712Z,7.62
2024-05-09T01:37:50.218Z,7.64
2024-05-09T01:39:31.687Z,7.82
2024-05-09T01:41:13.156Z,7.92
2024-05-09T01:42:54.642Z,7.67
2024-05-09T01:44:36.111Z,7.85
2024-05-09T01:46:17.723Z,7.70
2024-05-09T01:47:59.627Z,7.42
2024-05-09T01:49:41.435Z,7.17
2024-05-09T01:51:22.949Z,7.31
2024-05-09T01:53:04.523Z,7.32
2024-05-09T01:54:46.013Z,7.37
2024-05-09T01:56:27.594Z,7.35
2024-05-09T01:58:09.164Z,7.31
2024-05-09T01:59:50.624Z,7.22
2024-05-09T02:01:55.347Z,7.19
2024-05-09T02:03:33.667Z,7.03
2024-05-09T02:05:15.305Z,7.18
2024-05-09T02:06:56.800Z,7.23
2024-05-09T02:08:38.361Z,7.21
2024-05-09T02:10:26.180Z,6.99
2024-05-09T02:12:13.409Z,6.95
2024-05-09T02:13:55.001Z,7.11
2024-05-09T02:15:36.495Z,7.25
2024-05-09T02:17:18.061Z,7.22
2024-05-09T02:18:59.654Z,7.57
2024-05-09T02:20:42.073Z,6.79
2024-05-09T02:22:24.168Z,7.16
2024-05-09T02:24:05.639Z,7.23
2024-05-09T02:25:47.143Z,7.26
2024-05-09T02:27:28.607Z,7.25
2024-05-09T02:29:10.112Z,7.30
2024-05-09T02:30:51.732Z,7.37
2024-05-09T02:32:33.336Z,7.31
2024-05-09T02:34:14.901Z,7.57
2024-05-09T02:35:56.431Z,7.71
2024-05-09T02:37:37.929Z,7.54
2024-05-09T02:39:19.399Z,7.64
2024-05-09T02:41:00.895Z,7.50
2024-05-09T02:42:42.408Z,7.50
2024-05-09T02:44:23.930Z,7.30
2024-05-09T02:46:05.481Z,7.27
2024-05-09T02:47:47.103Z,7.13
2024-05-09T02:49:28.843Z,6.99
2024-05-09T02:51:10.619Z,6.81
2024-05-09T02:52:52.163Z,6.77
2024-05-09T02:54:33.627Z,6.85
2024-05-09T02:56:15.145Z,6.70
2024-05-09T02:57:56.714Z,6.71
2024-05-09T02:59:38.246Z,6.82
2024-05-09T03:01:19.868Z,6.80
2024-05-09T03:03:01.698Z,6.64
2024-05-09T03:04:43.408Z,6.24
2024-05-09T03:06:24.964Z,5.80
2024-05-09T03:08:06.491Z,5.75
2024-05-09T03:09:47.994Z,5.53
2024-05-09T03:11:29.549Z,5.33
2024-05-09T03:13:11.115Z,5.58
2024-05-09T03:14:52.570Z,5.68
2024-05-09T03:16:34.034Z,6.00
2024-05-09T03:18:15.791Z,6.16
2024-05-09T03:19:57.415Z,6.39
2024-05-09T03:21:38.934Z,6.08
2024-05-09T03:23:20.484Z,6.27
2024-05-09T03:25:01.982Z,6.49
2024-05-09T03:26:43.447Z,6.29
2024-05-09T03:28:24.996Z,6.13
2024-05-09T03:30:07.649Z,6.05
2024-05-09T03:31:49.349Z,6.12
2024-05-09T03:33:31.215Z,6.20
2024-05-09T03:35:13.013Z,6.29
2024-05-09T03:36:54.475Z,6.39
2024-05-09T03:38:36.061Z,6.43
2024-05-09T03:40:23.426Z,6.30
2024-05-09T03:42:07.624Z,6.24
2024-05-09T03:43:49.149Z,6.20
2024-05-09T03:45:30.668Z,5.58
2024-05-09T03:47:12.273Z,5.25
2024-05-09T03:48:53.969Z,5.33
2024-05-09T03:50:36.684Z,5.59
2024-05-09T03:52:18.886Z,5.96
2024-05-09T03:54:00.325Z,6.20
2024-05-09T03:55:41.822Z,6.30
2024-05-09T03:57:23.268Z,6.30
2024-05-09T03:59:04.772Z,6.45
2024-05-09T04:00:46.353Z,6.40
2024-05-09T04:02:28.054Z,6.40
2024-05-09T04:04:09.647Z,6.48
2024-05-09T04:05:51.197Z,6.37
2024-05-09T04:07:32.819Z,5.61
2024-05-09T04:09:14.273Z,5.88
2024-05-09T04:10:55.773Z,5.80
2024-05-09T04:12:37.358Z,5.49
2024-05-09T04:14:18.825Z,5.39
2024-05-09T04:16:00.410Z,5.35
2024-05-09T04:17:42.029Z,5.29
2024-05-09T04:19:23.693Z,5.24
2024-05-09T04:21:05.476Z,5.17
2024-05-09T04:22:47.126Z,5.20
2024-05-09T04:24:28.638Z,5.28
2024-05-09T04:26:10.122Z,5.43
2024-05-09T04:27:51.590Z,5.42
2024-05-09T04:29:33.099Z,5.54
2024-05-09T04:31:14.626Z,5.60
2024-05-09T04:32:56.241Z,4.60
2024-05-09T04:34:37.802Z,4.24
2024-05-09T04:36:19.286Z,4.26
2024-05-09T04:38:00.894Z,3.58
2024-05-09T04:39:42.424Z,3.80
2024-05-09T04:41:23.907Z,3.89
2024-05-09T04:43:05.618Z,4.03
2024-05-09T04:44:47.297Z,3.98
2024-05-09T04:46:28.782Z,4.10
2024-05-09T04:48:10.514Z,4.51
2024-05-09T04:49:52.087Z,4.64
2024-05-09T04:51:33.548Z,4.55
2024-05-09T04:53:15.076Z,4.65
2024-05-09T04:54:58.510Z,4.83
2024-05-09T04:56:40.462Z,5.16
2024-05-09T04:58:21.947Z,5.21
2024-05-09T05:00:07.227Z,5.29
2024-05-09T05:01:50.909Z,5.27
2024-05-09T05:03:32.790Z,5.39
2024-05-09T05:05:14.529Z,5.36
2024-05-09T05:06:57.785Z,5.42
2024-05-09T05:08:40.540Z,5.44
2024-05-09T05:10:29.499Z,5.49
2024-05-09T05:12:16.890Z,5.63
2024-05-09T05:13:58.487Z,5.18
2024-05-09T05:15:39.965Z,4.93
2024-05-09T05:17:21.545Z,4.43
2024-05-09T05:19:03.294Z,4.13
2024-05-09T05:20:45.240Z,4.22
2024-05-09T05:22:26.784Z,4.20
2024-05-09T05:24:08.296Z,4.40
2024-05-09T05:25:50.071Z,4.62
2024-05-09T05:27:31.704Z,4.60
2024-05-09T05:29:13.338Z,4.28
2024-05-09T05:30:54.880Z,4.21
2024-05-09T05:32:36.371Z,4.24
2024-05-09T05:34:17.925Z,4.35
2024-05-09T05:35:59.408Z,4.55
2024-05-09T05:37:40.892Z,4.78
2024-05-09T05:39:22.334Z,4.88
2024-05-09T05:41:03.843Z,4.94
2024-05-09T05:42:45.353Z,5.02
2024-05-09T05:44:26.920Z,4.64
2024-05-09T05:46:08.478Z,4.50
2024-05-09T05:47:50.079Z,4.68
2024-05-09T05:49:31.874Z,5.11
2024-05-09T05:51:13.665Z,5.16
2024-05-09T05:52:55.330Z,5.16
2024-05-09T05:54:36.841Z,5.36
2024-05-09T05:56:18.338Z,5.26
2024-05-09T05:57:59.818Z,4.93
2024-05-09T05:59:41.339Z,5.06
2024-05-09T06:01:22.909Z,5.10
2024-05-09T06:03:04.653Z,5.22
2024-05-09T06:04:46.454Z,5.04
2024-05-09T06:06:27.954Z,4.99
2024-05-09T06:08:09.599Z,5.04
2024-05-09T06:09:51.169Z,5.17
2024-05-09T06:11:32.772Z,4.86
2024-05-09T06:13:14.607Z,5.22
2024-05-09T06:14:56.159Z,4.99
2024-05-09T06:16:37.719Z,5.12
2024-05-09T06:18:19.665Z,5.17
2024-05-09T06:20:01.373Z,5.13
2024-05-09T06:21:42.901Z,5.19
2024-05-09T06:23:24.457Z,5.39
2024-05-09T06:25:05.990Z,5.24
2024-05-09T06:26:47.520Z,5.23
2024-05-09T06:28:29.012Z,5.38
2024-05-09T06:30:21.091Z,5.58
2024-05-09T06:32:07.660Z,5.08
2024-05-09T06:33:49.217Z,5.40
2024-05-09T06:35:31.119Z,4.88
2024-05-09T06:37:12.722Z,4.69
2024-05-09T06:38:54.164Z,5.01
2024-05-09T06:40:38.392Z,4.43
2024-05-09T06:42:21.545Z,4.52
2024-05-09T06:44:03.044Z,4.79
2024-05-09T06:45:44.612Z,4.27
2024-05-09T06:47:26.212Z,4.32
2024-05-09T06:49:07.957Z,4.36
2024-05-09T06:50:49.659Z,4.32
2024-05-09T06:52:31.364Z,4.30
2024-05-09T06:54:12.819Z,4.53
2024-05-09T06:55:54.349Z,4.90
2024-05-09T06:57:36.703Z,4.78
2024-05-09T06:59:19.271Z,4.89
2024-05-09T07:01:00.858Z,4.74
2024-05-09T07:02:42.581Z,4.76
2024-05-09T07:04:24.304Z,5.05
2024-05-09T07:06:06.000Z,4.61
2024-05-09T07:07:47.589Z,5.06
2024-05-09T07:09:29.086Z,5.86
2024-05-09T07:11:10.692Z,5.52
2024-05-09T07:12:52.190Z,5.44
2024-05-09T07:14:36.037Z,5.64
2024-05-09T07:16:18.327Z,5.30
2024-05-09T07:17:59.874Z,5.97
2024-05-09T07:19:41.515Z,6.15
2024-05-09T07:21:23.051Z,6.19
2024-05-09T07:23:04.666Z,6.38
2024-05-09T07:24:46.231Z,6.14
2024-05-09T07:26:27.839Z,6.86
2024-05-09T07:28:09.348Z,7.73
2024-05-09T07:29:50.816Z,7.10
2024-05-09T07:31:32.270Z,6.29
2024-05-09T07:33:13.880Z,6.52
2024-05-09T07:34:55.442Z,7.38
2024-05-09T07:36:36.944Z,7.69
2024-05-09T07:38:18.514Z,7.88
2024-05-09T07:40:00.244Z,7.98
2024-05-09T07:41:41.742Z,8.42
2024-05-09T07:43:23.203Z,9.10
2024-05-09T07:45:21.453Z,9.65
2024-05-09T07:48:14.434Z,10.30
2024-05-09T07:53:33.468Z,11.56
2024-05-09T07:54:37.846Z,11.86
2024-05-09T07:56:21.849Z,12.02
2024-05-09T07:58:04.885Z,12.35
2024-05-09T07:59:46.396Z,12.59
2024-05-09T08:01:28.023Z,12.53
2024-05-09T08:03:09.732Z,12.73
2024-05-09T08:04:51.289Z,12.84
2024-05-09T08:06:32.791Z,12.17
2024-05-09T08:08:14.286Z,9.98
2024-05-09T08:09:55.773Z,9.57
2024-05-09T08:11:37.264Z,8.79
2024-05-09T08:13:18.976Z,8.23
2024-05-09T08:15:00.508Z,8.17
2024-05-09T08:16:41.950Z,7.79
2024-05-09T08:18:23.551Z,7.62
2024-05-09T08:20:05.724Z,8.04
2024-05-09T08:21:47.340Z,8.11
2024-05-09T08:23:28.941Z,8.91
2024-05-09T08:25:13.551Z,9.51
2024-05-09T08:26:55.476Z,10.11
2024-05-09T08:28:36.926Z,10.92
2024-05-09T08:30:24.881Z,11.42
2024-05-09T08:32:11.357Z,12.19
2024-05-09T08:33:53.104Z,12.45
2024-05-09T08:35:34.970Z,12.74
2024-05-09T08:37:22.343Z,12.93
2024-05-09T08:39:06.153Z,13.27
2024-05-09T08:40:47.657Z,13.43
2024-05-09T08:42:29.526Z,13.71
2024-05-09T08:44:10.987Z,13.97
2024-05-09T08:45:52.501Z,14.10
2024-05-09T08:47:34.149Z,14.26
2024-05-09T08:49:15.911Z,14.30
2024-05-09T08:50:57.451Z,14.61
2024-05-09T08:52:38.902Z,13.19
2024-05-09T08:54:20.362Z,12.33
2024-05-09T08:56:01.888Z,12.97
2024-05-09T08:57:43.373Z,13.43
2024-05-09T08:59:24.851Z,13.72
2024-05-09T09:01:06.393Z,14.02
2024-05-09T09:02:47.954Z,14.36
2024-05-09T09:04:29.500Z,14.55
2024-05-09T09:06:11.057Z,14.33
2024-05-09T09:07:52.578Z,11.58
2024-05-09T09:09:34.082Z,10.75
2024-05-09T09:11:15.615Z,10.47
2024-05-09T09:12:57.142Z,10.95
2024-05-09T09:14:38.623Z,11.08
2024-05-09T09:16:20.244Z,11.20
2024-05-09T09:18:01.961Z,11.68
2024-05-09T09:19:43.649Z,11.19
2024-05-09T09:21:25.152Z,10.96
2024-05-09T09:23:06.609Z,11.10
2024-05-09T09:24:48.154Z,10.67
2024-05-09T09:26:29.631Z,10.52
2024-05-09T09:28:11.258Z,10.24
2024-05-09T09:29:52.803Z,10.17
2024-05-09T09:31:34.456Z,10.43
2024-05-09T09:33:16.050Z,10.31
2024-05-09T09:34:57.607Z,10.02
2024-05-09T09:36:39.189Z,10.20
2024-05-09T09:38:20.695Z,10.29
2024-05-09T09:40:02.223Z,10.74
2024-05-09T09:41:43.729Z,11.25
2024-05-09T09:43:25.254Z,11.63
2024-05-09T09:45:06.732Z,12.03
2024-05-09T09:46:48.278Z,12.41
2024-05-09T09:48:29.947Z,13.15
2024-05-09T09:50:14.567Z,13.43
2024-05-09T09:51:58.574Z,13.41
2024-05-09T09:53:40.136Z,14.16
2024-05-09T09:55:21.676Z,13.68
2024-05-09T09:57:03.241Z,14.16
2024-05-09T09:58:44.699Z,14.35
2024-05-09T10:00:30.604Z,14.79
2024-05-09T10:02:14.794Z,14.87
2024-05-09T10:03:56.390Z,14.50
2024-05-09T10:05:39.331Z,14.74
2024-05-09T10:07:21.980Z,15.08
2024-05-09T10:09:03.487Z,15.66
2024-05-09T10:10:45.042Z,16.12
2024-05-09T10:12:26.606Z,16.12
2024-05-09T10:14:08.106Z,16.43
2024-05-09T10:15:49.611Z,16.46
2024-05-09T10:17:31.170Z,16.40
2024-05-09T10:19:12.718Z,16.86
2024-05-09T10:20:54.223Z,16.63
2024-05-09T10:22:35.697Z,16.95
2024-05-09T10:24:17.171Z,16.48
2024-05-09T10:25:58.632Z,16.59
2024-05-09T10:27:40.142Z,16.47
2024-05-09T10:29:21.666Z,16.46
2024-05-09T10:31:03.180Z,16.63
2024-05-09T10:32:44.862Z,16.51
2024-05-09T10:34:26.699Z,17.00
2024-05-09T10:36:08.331Z,17.09
2024-05-09T10:37:49.785Z,16.97
2024-05-09T10:39:31.299Z,17.02
2024-05-09T10:41:12.818Z,17.47
2024-05-09T10:42:54.366Z,17.16
2024-05-09T10:44:35.878Z,17.10
2024-05-09T10:46:17.411Z,16.68
2024-05-09T10:47:59.008Z,17.15
2024-05-09T10:49:40.643Z,17.01
2024-05-09T10:51:22.136Z,17.27
2024-05-09T10:53:03.612Z,17.61
2024-05-09T10:54:45.096Z,17.52
2024-05-09T10:56:26.566Z,17.81
2024-05-09T10:58:08.015Z,17.90
2024-05-09T10:59:49.475Z,17.11
2024-05-09T11:01:31.022Z,17.55
2024-05-09T11:03:12.556Z,17.81
2024-05-09T11:04:54.222Z,17.44
2024-05-09T11:06:35.832Z,17.71
2024-05-09T11:08:17.286Z,17.80
2024-05-09T11:09:58.975Z,17.54
2024-05-09T11:11:40.504Z,17.88
2024-05-09T11:13:22.074Z,18.01
2024-05-09T11:15:03.546Z,18.22
2024-05-09T11:16:45.002Z,18.34
2024-05-09T11:18:28.115Z,18.51
2024-05-09T11:20:17.067Z,18.84
2024-05-09T11:22:04.621Z,19.15
2024-05-09T11:23:46.122Z,18.90
2024-05-09T11:25:27.594Z,18.92
2024-05-09T11:27:09.074Z,18.59
2024-05-09T11:28:51.035Z,18.39
2024-05-09T11:30:32.805Z,18.19
2024-05-09T11:32:14.386Z,18.40
2024-05-09T11:33:55.980Z,18.31
2024-05-09T11:35:37.477Z,18.65
2024-05-09T11:37:19.183Z,18.34
2024-05-09T11:39:00.767Z,17.56
2024-05-09T11:40:42.421Z,17.53
2024-05-09T11:42:24.040Z,17.82
2024-05-09T11:44:05.490Z,17.81
2024-05-09T11:45:46.985Z,17.41
2024-05-09T11:47:28.632Z,17.53
2024-05-09T11:49:10.326Z,17.62
2024-05-09T11:50:51.857Z,17.43
2024-05-09T11:52:33.313Z,17.08
2024-05-09T11:54:14.791Z,17.84
2024-05-09T11:55:56.251Z,17.45
2024-05-09T11:57:37.757Z,17.25
2024-05-09T11:59:19.241Z,16.85
2024-05-09T12:01:00.795Z,16.85
2024-05-09T12:02:42.311Z,17.44
2024-05-09T12:04:24.090Z,17.55
2024-05-09T12:06:05.834Z,17.49
2024-05-09T12:07:47.473Z,17.77
2024-05-09T12:09:29.022Z,17.56
2024-05-09T12:11:10.614Z,17.01
2024-05-09T12:12:52.241Z,17.39
2024-05-09T12:14:33.748Z,17.94
2024-05-09T12:16:15.284Z,18.30
2024-05-09T12:17:58.997Z,18.49
2024-05-09T12:19:42.773Z,18.42
2024-05-09T12:21:24.276Z,18.27
2024-05-09T12:23:05.785Z,18.24
2024-05-09T12:24:47.284Z,18.06
2024-05-09T12:26:28.930Z,18.23
2024-05-09T12:28:10.644Z,18.05
2024-05-09T12:29:52.159Z,17.88
2024-05-09T12:31:33.638Z,17.41
2024-05-09T12:33:15.214Z,17.33
2024-05-09T12:34:56.746Z,17.53
2024-05-09T12:36:38.269Z,17.43
2024-05-09T12:38:19.747Z,17.28
2024-05-09T12:40:01.230Z,16.91
2024-05-09T12:41:42.740Z,16.86
2024-05-09T12:43:24.233Z,16.78
2024-05-09T12:45:05.812Z,16.47
2024-05-09T12:46:47.299Z,16.63
2024-05-09T12:48:28.937Z,17.07
2024-05-09T12:50:21.762Z,17.00
2024-05-09T12:52:06.790Z,16.22
2024-05-09T12:53:48.293Z,14.57
2024-05-09T12:55:34.008Z,14.76
2024-05-09T12:57:22.190Z,13.84
2024-05-09T12:59:03.671Z,13.19
2024-05-09T13:00:45.496Z,12.42
2024-05-09T13:02:27.493Z,12.40
2024-05-09T13:04:09.305Z,12.24
2024-05-09T13:05:51.023Z,12.18
2024-05-09T13:07:32.526Z,12.15
2024-05-09T13:09:14.430Z,12.39
2024-05-09T13:10:56.256Z,12.49
2024-05-09T13:12:37.755Z,12.89
2024-05-09T13:14:19.279Z,12.96
2024-05-09T13:16:00.835Z,13.77
2024-05-09T13:17:42.440Z,13.69
2024-05-09T13:19:24.122Z,13.66
2024-05-09T13:21:05.645Z,13.68
2024-05-09T13:22:47.124Z,14.32
2024-05-09T13:24:28.629Z,14.43
2024-05-09T13:26:10.127Z,14.81
2024-05-09T13:27:51.663Z,15.06
2024-05-09T13:29:33.173Z,14.86
2024-05-09T13:31:14.740Z,14.70
2024-05-09T13:32:56.329Z,15.07
2024-05-09T13:34:38.003Z,15.02
2024-05-09T13:36:19.503Z,15.49
2024-05-09T13:38:01.012Z,15.56
2024-05-09T13:39:42.467Z,15.74
2024-05-09T13:41:23.941Z,15.79
2024-05-09T13:43:05.606Z,16.10
2024-05-09T13:44:47.232Z,16.16
2024-05-09T13:46:28.792Z,16.24
2024-05-09T13:48:10.638Z,16.45
2024-05-09T13:49:52.318Z,16.42
2024-05-09T13:51:34.021Z,16.57
2024-05-09T13:53:15.543Z,16.41
2024-05-09T13:54:57.153Z,16.31
2024-05-09T13:56:38.849Z,16.36
2024-05-09T13:58:20.659Z,16.63
2024-05-09T14:00:03.632Z,15.87
2024-05-09T14:01:45.361Z,16.35
2024-05-09T14:03:27.161Z,16.56
2024-05-09T14:05:08.863Z,16.91
2024-05-09T14:06:50.508Z,16.49
2024-05-09T14:08:31.994Z,16.24
2024-05-09T14:10:22.622Z,16.19
2024-05-09T14:12:09.725Z,16.47
2024-05-09T14:13:52.847Z,16.21
2024-05-09T14:15:34.382Z,16.38
2024-05-09T14:17:16.059Z,16.56
2024-05-09T14:18:57.643Z,16.04
2024-05-09T14:20:39.193Z,16.53
2024-05-09T14:22:21.875Z,17.11
2024-05-09T14:24:03.474Z,17.54
2024-05-09T14:25:46.579Z,17.65
2024-05-09T14:27:29.773Z,17.44
2024-05-09T14:29:11.376Z,17.37
2024-05-09T14:30:52.944Z,17.03
2024-05-09T14:32:34.565Z,17.12
2024-05-09T14:34:16.295Z,17.36
2024-05-09T14:35:57.990Z,17.62
2024-05-09T14:37:39.880Z,17.36
2024-05-09T14:39:21.388Z,17.64
2024-05-09T14:41:02.894Z,17.75
2024-05-09T14:42:44.406Z,17.68
2024-05-09T14:44:25.895Z,17.94
2024-05-09T14:46:07.525Z,17.84
2024-05-09T14:47:49.189Z,17.67
2024-05-09T14:49:30.987Z,18.25
2024-05-09T14:51:12.844Z,17.83
2024-05-09T14:52:54.468Z,17.68
2024-05-09T14:54:36.114Z,18.09
2024-05-09T14:56:17.635Z,18.36
2024-05-09T14:57:59.161Z,18.19
2024-05-09T14:59:40.784Z,17.89
2024-05-09T15:01:22.376Z,18.02
2024-05-09T15:03:04.012Z,18.10
2024-05-09T15:04:45.748Z,18.34
2024-05-09T15:06:27.326Z,18.09
2024-05-09T15:08:08.855Z,18.22
2024-05-09T15:09:50.407Z,18.32
2024-05-09T15:11:31.995Z,18.04
2024-05-09T15:13:16.250Z,17.56
2024-05-09T15:14:58.421Z,18.16
2024-05-09T15:16:39.944Z,17.98
2024-05-09T15:18:21.619Z,18.38
2024-05-09T15:20:05.912Z,17.74
2024-05-09T15:21:50.593Z,18.06
2024-05-09T15:23:32.152Z,17.88
2024-05-09T15:25:13.816Z,17.96
2024-05-09T15:26:55.435Z,18.09
2024-05-09T15:28:36.906Z,18.01
2024-05-09T15:30:24.013Z,17.84
2024-05-09T15:32:09.828Z,17.79
2024-05-09T15:33:51.516Z,17.74
2024-05-09T15:35:33.124Z,17.76
2024-05-09T15:37:14.733Z,17.70
2024-05-09T15:38:56.275Z,17.73
2024-05-09T15:40:40.346Z,17.41
2024-05-09T15:42:22.619Z,17.43
2024-05-09T15:44:04.106Z,17.51
2024-05-09T15:45:45.652Z,17.64
2024-05-09T15:47:27.189Z,17.77
2024-05-09T15:49:09.052Z,17.39
2024-05-09T15:50:50.721Z,17.17
2024-05-09T15:52:32.344Z,16.57
2024-05-09T15:54:13.865Z,15.47
2024-05-09T15:55:55.411Z,15.02
2024-05-09T15:57:36.908Z,14.10
2024-05-09T15:59:18.383Z,13.41
2024-05-09T16:00:59.927Z,13.35
2024-05-09T16:02:41.551Z,13.34
2024-05-09T16:04:23.286Z,13.24
2024-05-09T16:06:04.944Z,13.30
2024-05-09T16:07:46.492Z,13.46
2024-05-09T16:09:27.962Z,13.81
2024-05-09T16:11:09.545Z,14.44
2024-05-09T16:12:51.130Z,13.97
2024-05-09T16:14:32.610Z,14.15
2024-05-09T16:16:14.092Z,14.29
2024-05-09T16:17:56.095Z,14.70
2024-05-09T16:19:37.671Z,14.65
2024-05-09T16:21:19.154Z,14.90
2024-05-09T16:23:00.598Z,15.33
2024-05-09T16:24:42.128Z,15.46
2024-05-09T16:26:23.626Z,14.84
2024-05-09T16:28:08.659Z,15.09
2024-05-09T16:29:52.065Z,15.34
2024-05-09T16:31:33.625Z,15.59
2024-05-09T16:33:15.259Z,15.79
2024-05-09T16:34:56.835Z,15.76
2024-05-09T16:36:38.357Z,15.60
2024-05-09T16:38:19.853Z,15.56
2024-05-09T16:40:01.377Z,15.65
2024-05-09T16:41:42.870Z,15.64
2024-05-09T16:43:24.492Z,15.94
2024-05-09T16:45:06.641Z,16.00
2024-05-09T16:46:48.443Z,16.14
2024-05-09T16:48:30.239Z,16.14
2024-05-09T16:50:15.793Z,16.17
2024-05-09T16:52:00.622Z,16.10
2024-05-09T16:53:42.194Z,16.14
2024-05-09T16:55:23.941Z,15.99
2024-05-09T16:57:05.529Z,15.94
2024-05-09T16:58:46.982Z,15.85
2024-05-09T17:00:38.281Z,15.92
2024-05-09T17:02:23.881Z,16.05
2024-05-09T17:04:05.675Z,16.02
2024-05-09T17:05:47.949Z,15.99
2024-05-09T17:07:29.710Z,15.97
2024-05-09T17:09:12.075Z,16.04
2024-05-09T17:10:57.215Z,16.14
2024-05-09T17:12:38.806Z,15.73
2024-05-09T17:14:20.289Z,15.03
2024-05-09T17:16:01.860Z,14.74
2024-05-09T17:17:43.455Z,14.93
2024-05-09T17:19:24.990Z,14.97
2024-05-09T17:21:06.513Z,15.16
2024-05-09T17:22:47.989Z,15.31
2024-05-09T17:24:29.500Z,15.31
2024-05-09T17:26:10.985Z,15.47
2024-05-09T17:27:52.568Z,14.94
2024-05-09T17:29:34.052Z,15.24
2024-05-09T17:31:15.552Z,15.37
2024-05-09T17:32:57.135Z,15.30
2024-05-09T17:34:38.858Z,15.16
2024-05-09T17:36:20.371Z,15.14
2024-05-09T17:38:01.947Z,14.90
2024-05-09T17:39:43.575Z,14.18
2024-05-09T17:41:25.073Z,13.75
2024-05-09T17:43:08.351Z,14.07
2024-05-09T17:44:51.398Z,14.25
2024-05-09T17:46:32.971Z,14.21
2024-05-09T17:48:14.713Z,13.98
2024-05-09T17:49:56.422Z,13.89
2024-05-09T17:51:38.059Z,14.11
2024-05-09T17:53:19.558Z,14.39
2024-05-09T17:55:01.184Z,14.35
2024-05-09T17:56:42.769Z,14.46
2024-05-09T17:58:24.509Z,14.37
2024-05-09T18:00:11.137Z,14.47
2024-05-09T18:01:53.254Z,14.43
2024-05-09T18:03:34.944Z,14.56
2024-05-09T18:05:16.612Z,14.68
2024-05-09T18:06:58.231Z,14.59
2024-05-09T18:08:39.718Z,14.46
2024-05-09T18:10:26.057Z,14.52
2024-05-09T18:12:14.412Z,14.47
2024-05-09T18:13:55.864Z,14.63
2024-05-09T18:15:37.746Z,14.62
2024-05-09T18:17:20.611Z,14.40
2024-05-09T18:19:03.447Z,14.46
2024-05-09T18:20:46.225Z,14.39
2024-05-09T18:22:28.257Z,14.37
2024-05-09T18:24:09.740Z,14.31
2024-05-09T18:25:51.204Z,14.29
2024-05-09T18:27:32.719Z,14.13
2024-05-09T18:29:14.184Z,14.16
2024-05-09T18:30:55.762Z,13.67
2024-05-09T18:32:37.382Z,13.61
2024-05-09T18:34:19.090Z,13.52
2024-05-09T18:36:00.705Z,13.68
2024-05-09T18:37:42.160Z,13.56
2024-05-09T18:39:23.627Z,13.45
2024-05-09T18:41:05.206Z,13.48
2024-05-09T18:42:46.742Z,13.33
2024-05-09T18:44:28.221Z,13.35
2024-05-09T18:46:09.785Z,13.36
2024-05-09T18:47:51.341Z,13.26
2024-05-09T18:49:32.938Z,13.26
2024-05-09T18:51:14.463Z,13.09
2024-05-09T18:52:55.897Z,12.50
2024-05-09T18:54:37.370Z,12.24
2024-05-09T18:56:18.863Z,12.19
2024-05-09T18:58:00.576Z,12.33
2024-05-09T18:59:42.129Z,12.37
2024-05-09T19:01:23.630Z,12.17
2024-05-09T19:03:06.109Z,12.35
2024-05-09T19:04:48.237Z,12.37
2024-05-09T19:06:30.910Z,12.26
2024-05-09T19:08:12.487Z,12.34
2024-05-09T19:09:54.006Z,12.38
2024-05-09T19:11:35.656Z,12.39
2024-05-09T19:13:17.196Z,12.35
2024-05-09T19:14:58.687Z,12.41
2024-05-09T19:16:40.177Z,11.95
2024-05-09T19:18:21.754Z,11.93
2024-05-09T19:20:04.542Z,11.99
2024-05-09T19:21:47.140Z,11.95
2024-05-09T19:23:28.972Z,12.02
2024-05-09T19:25:10.788Z,12.03
2024-05-09T19:26:52.334Z,11.87
2024-05-09T19:28:33.891Z,11.81
2024-05-09T19:30:25.071Z,11.84
2024-05-09T19:32:15.367Z,11.81
2024-05-09T19:33:56.898Z,11.80
2024-05-09T19:35:38.426Z,11.87
2024-05-09T19:37:20.050Z,11.66
2024-05-09T19:39:01.515Z,11.75
2024-05-09T19:40:43.136Z,11.87
2024-05-09T19:42:24.710Z,11.67
2024-05-09T19:44:06.231Z,10.83
2024-05-09T19:45:47.778Z,10.67
2024-05-09T19:47:29.440Z,10.84
2024-05-09T19:49:11.250Z,10.80
2024-05-09T19:50:53.344Z,10.71
2024-05-09T19:52:35.104Z,10.87
2024-05-09T19:54:16.681Z,10.92
2024-05-09T19:55:58.160Z,10.89
2024-05-09T19:57:39.815Z,10.95
2024-05-09T19:59:21.311Z,11.04
2024-05-09T20:01:02.852Z,10.65
2024-05-09T20:02:44.559Z,10.81
2024-05-09T20:04:26.316Z,10.74
2024-05-09T20:06:07.867Z,10.79
2024-05-09T20:07:49.328Z,10.66
2024-05-09T20:09:30.783Z,10.48
2024-05-09T20:11:12.335Z,10.55
2024-05-09T20:12:53.917Z,10.36
2024-05-09T20:14:35.405Z,10.35
2024-05-09T20:16:17.023Z,10.17
2024-05-09T20:17:58.848Z,9.96
2024-05-09T20:19:40.717Z,9.87
2024-05-09T20:21:22.231Z,9.68
2024-05-09T20:23:03.703Z,9.63
2024-05-09T20:24:45.228Z,9.61
2024-05-09T20:26:28.108Z,9.22
2024-05-09T20:28:11.516Z,8.95
2024-05-09T20:29:53.078Z,9.02
2024-05-09T20:31:34.538Z,9.16
2024-05-09T20:33:16.050Z,9.39
2024-05-09T20:34:57.520Z,9.19
2024-05-09T20:36:39.014Z,9.17
2024-05-09T20:38:20.495Z,9.36
2024-05-09T20:40:01.997Z,9.58
2024-05-09T20:41:43.480Z,9.71
2024-05-09T20:43:25.235Z,9.75
2024-05-09T20:45:06.806Z,9.65
2024-05-09T20:46:48.248Z,9.74
2024-05-09T20:48:29.764Z,9.77
2024-05-09T20:50:20.368Z,9.90
2024-05-09T20:52:10.007Z,9.87
2024-05-09T20:53:51.501Z,9.87
2024-05-09T20:55:32.979Z,9.91
2024-05-09T20:57:14.438Z,9.83
2024-05-09T20:58:55.886Z,9.74
2024-05-09T21:00:41.069Z,9.72
2024-05-09T21:02:25.803Z,9.82
2024-05-09T21:04:07.570Z,9.85
2024-05-09T21:05:49.262Z,9.74
2024-05-09T21:07:30.810Z,9.94
2024-05-09T21:09:12.351Z,9.75
2024-05-09T21:10:53.984Z,9.63
2024-05-09T21:12:35.645Z,9.78
2024-05-09T21:14:17.193Z,9.84
2024-05-09T21:15:58.834Z,9.73
2024-05-09T21:17:40.387Z,9.99
2024-05-09T21:19:21.970Z,10.13
2024-05-09T21:21:03.501Z,10.43
2024-05-09T21:22:44.949Z,10.18
2024-05-09T21:24:26.392Z,10.17
2024-05-09T21:26:07.890Z,10.07
2024-05-09T21:27:49.378Z,9.83
2024-05-09T21:29:30.863Z,9.52
2024-05-09T21:31:12.481Z,9.26
2024-05-09T21:32:54.110Z,8.88
2024-05-09T21:34:35.694Z,8.61
2024-05-09T21:36:17.211Z,8.62
2024-05-09T21:37:58.700Z,8.77
2024-05-09T21:39:40.268Z,8.89
2024-05-09T21:41:21.755Z,8.32
2024-05-09T21:43:03.394Z,8.17
2024-05-09T21:44:45.037Z,7.89
2024-05-09T21:46:26.598Z,7.55
2024-05-09T21:48:08.206Z,8.00
2024-05-09T21:49:49.737Z,8.39
2024-05-09T21:51:31.221Z,8.52
2024-05-09T21:53:13.428Z,8.48
2024-05-09T21:54:55.460Z,8.71
2024-05-09T21:56:37.193Z,8.72
2024-05-09T21:58:18.741Z,8.99
2024-05-09T22:00:00.351Z,9.00
2024-05-09T22:01:41.928Z,8.65
2024-05-09T22:03:23.582Z,8.81
2024-05-09T22:05:05.241Z,9.04
2024-05-09T22:06:46.889Z,8.84
2024-05-09T22:08:28.383Z,8.69
2024-05-09T22:10:19.621Z,8.85
2024-05-09T22:12:04.401Z,9.03
2024-05-09T22:13:45.870Z,9.26
2024-05-09T22:15:27.437Z,9.45
2024-05-09T22:17:09.042Z,9.24
2024-05-09T22:18:50.939Z,9.34